sensor_id;sensor_type;location;lat;lon;timestamp;pressure;altitude;pressure_sealevel;temperature;humidity
52797;BME280;38666;43.348;12.584;2022-09-09T06:56:27;95611.84;;;21.82;79.52
52797;BME280;38666;43.348;12.584;2022-09-09T06:58:58;95615.03;;;21.50;84.21
52797;BME280;38666;43.348;12.584;2022-09-09T07:01:25;95612.44;;;21.46;86.31
52797;BME280;38666;43.348;12.584;2022-09-09T07:03:54;95612.59;;;21.67;84.89
52797;BME280;38666;43.348;12.584;2022-09-09T07:06:22;95614.31;;;21.64;85.19
52797;BME280;38666;43.348;12.584;2022-09-09T07:08:50;95613.75;;;21.75;84.72
52797;BME280;38666;43.348;12.584;2022-09-09T07:11:15;95611.09;;;21.96;82.54
52797;BME280;38666;43.348;12.584;2022-09-09T07:13:41;95611.22;;;22.02;79.92
52797;BME280;38666;43.348;12.584;2022-09-09T07:16:12;95605.16;;;21.88;80.91
52797;BME280;38666;43.348;12.584;2022-09-09T07:18:39;95614.09;;;22.08;81.87
52797;BME280;38666;43.348;12.584;2022-09-09T07:21:04;95626.81;;;22.30;81.43
52797;BME280;38666;43.348;12.584;2022-09-09T07:23:31;95626.44;;;22.37;80.97
52797;BME280;38666;43.348;12.584;2022-09-09T07:25:57;95623.09;;;22.03;82.98
52797;BME280;38666;43.348;12.584;2022-09-09T07:28:23;95615.16;;;21.95;82.46
52797;BME280;38666;43.348;12.584;2022-09-09T07:30:57;95628.31;;;21.70;85.21
52797;BME280;38666;43.348;12.584;2022-09-09T07:33:24;95627.13;;;21.86;81.49
52797;BME280;38666;43.348;12.584;2022-09-09T07:35:50;95617.63;;;22.23;78.40
52797;BME280;38666;43.348;12.584;2022-09-09T07:38:16;95617.53;;;22.33;78.02
52797;BME280;38666;43.348;12.584;2022-09-09T07:40:41;95611.88;;;22.12;78.60
52797;BME280;38666;43.348;12.584;2022-09-09T07:43:07;95617.06;;;22.19;78.03
52797;BME280;38666;43.348;12.584;2022-09-09T07:45:34;95619.59;;;21.77;79.71
52797;BME280;38666;43.348;12.584;2022-09-09T07:48:00;95621.91;;;21.79;79.98
52797;BME280;38666;43.348;12.584;2022-09-09T07:50:26;95623.38;;;22.05;78.35
52797;BME280;38666;43.348;12.584;2022-09-09T07:52:52;95615.16;;;21.95;79.95
52797;BME280;38666;43.348;12.584;2022-09-09T07:55:19;95616.88;;;22.08;80.60
52797;BME280;38666;43.348;12.584;2022-09-09T07:57:45;95621.56;;;22.01;78.55
52797;BME280;38666;43.348;12.584;2022-09-09T08:00:11;95618.41;;;22.09;78.92
52797;BME280;38666;43.348;12.584;2022-09-09T08:02:37;95627.50;;;22.09;77.71
52797;BME280;38666;43.348;12.584;2022-09-09T08:05:02;95621.94;;;22.24;78.29
52797;BME280;38666;43.348;12.584;2022-09-09T08:07:28;95627.31;;;21.83;81.19
52797;BME280;38666;43.348;12.584;2022-09-09T08:09:54;95627.00;;;21.81;80.62
52797;BME280;38666;43.348;12.584;2022-09-09T08:12:21;95622.06;;;22.15;78.09
52797;BME280;38666;43.348;12.584;2022-09-09T08:14:46;95632.78;;;22.37;77.96
52797;BME280;38666;43.348;12.584;2022-09-09T08:17:12;95627.97;;;22.68;77.72
52797;BME280;38666;43.348;12.584;2022-09-09T08:19:37;95640.44;;;22.58;76.35
52797;BME280;38666;43.348;12.584;2022-09-09T08:22:03;95638.53;;;22.64;76.73
52797;BME280;38666;43.348;12.584;2022-09-09T08:24:28;95642.09;;;23.01;75.34
52797;BME280;38666;43.348;12.584;2022-09-09T08:26:54;95645.03;;;22.76;75.75
52797;BME280;38666;43.348;12.584;2022-09-09T08:29:22;95646.41;;;22.51;76.63
52797;BME280;38666;43.348;12.584;2022-09-09T08:31:50;95654.38;;;23.09;73.74
52797;BME280;38666;43.348;12.584;2022-09-09T08:34:16;95640.75;;;23.53;71.57
52797;BME280;38666;43.348;12.584;2022-09-09T08:36:45;95646.88;;;23.57;71.43
52797;BME280;38666;43.348;12.584;2022-09-09T08:39:13;95645.22;;;23.44;71.92
52797;BME280;38666;43.348;12.584;2022-09-09T08:52:13;95638.31;;;23.40;69.80
52797;BME280;38666;43.348;12.584;2022-09-09T08:54:41;95643.91;;;23.04;71.23
52797;BME280;38666;43.348;12.584;2022-09-09T08:57:12;95638.19;;;23.13;68.33
52797;BME280;38666;43.348;12.584;2022-09-09T08:59:39;95637.03;;;23.20;68.48
52797;BME280;38666;43.348;12.584;2022-09-09T09:02:21;95648.94;;;23.20;67.32
52797;BME280;38666;43.348;12.584;2022-09-09T09:13:18;95633.06;;;24.16;63.75
52797;BME280;38666;43.348;12.584;2022-09-09T09:15:50;95624.09;;;24.65;61.55
52797;BME280;38666;43.348;12.584;2022-09-09T09:18:17;95622.06;;;24.65;59.58
52797;BME280;38666;43.348;12.584;2022-09-09T09:20:53;95626.19;;;24.76;61.25
52797;BME280;38666;43.348;12.584;2022-09-09T09:23:23;95623.72;;;24.84;60.78
52797;BME280;38666;43.348;12.584;2022-09-09T09:25:50;95617.69;;;25.41;58.43
52797;BME280;38666;43.348;12.584;2022-09-09T09:28:23;95616.63;;;25.27;58.08
52797;BME280;38666;43.348;12.584;2022-09-09T09:31:06;95619.38;;;25.82;53.08
52797;BME280;38666;43.348;12.584;2022-09-09T09:33:42;95621.75;;;26.52;51.97
52797;BME280;38666;43.348;12.584;2022-09-09T09:36:12;95615.78;;;25.76;55.80
52797;BME280;38666;43.348;12.584;2022-09-09T09:39:00;95615.63;;;26.71;52.81
52797;BME280;38666;43.348;12.584;2022-09-09T09:41:44;95612.59;;;26.69;49.07
52797;BME280;38666;43.348;12.584;2022-09-09T09:44:40;95617.59;;;27.82;46.49
52797;BME280;38666;43.348;12.584;2022-09-09T09:49:39;95607.28;;;28.69;41.72
52797;BME280;38666;43.348;12.584;2022-09-09T09:52:05;95606.25;;;28.41;41.70
52797;BME280;38666;43.348;12.584;2022-09-09T09:54:37;95596.91;;;29.14;41.56
52797;BME280;38666;43.348;12.584;2022-09-09T09:57:11;95590.56;;;30.29;39.03
52797;BME280;38666;43.348;12.584;2022-09-09T09:59:37;95593.88;;;30.60;37.52
52797;BME280;38666;43.348;12.584;2022-09-09T10:02:19;95590.34;;;31.00;37.59
52797;BME280;38666;43.348;12.584;2022-09-09T10:04:45;95595.47;;;31.43;37.26
52797;BME280;38666;43.348;12.584;2022-09-09T10:07:17;95593.06;;;31.06;38.25
52797;BME280;38666;43.348;12.584;2022-09-09T10:09:43;95590.47;;;30.15;39.63
52797;BME280;38666;43.348;12.584;2022-09-09T10:17:34;95585.59;;;30.95;38.66
52797;BME280;38666;43.348;12.584;2022-09-09T10:22:35;95587.72;;;30.75;40.40
52797;BME280;38666;43.348;12.584;2022-09-09T10:25:21;95578.13;;;30.98;38.29
52797;BME280;38666;43.348;12.584;2022-09-09T10:30:54;95591.63;;;32.37;33.65
52797;BME280;38666;43.348;12.584;2022-09-09T10:36:20;95607.56;;;32.99;31.36
52797;BME280;38666;43.348;12.584;2022-09-09T10:38:48;95590.72;;;32.64;32.57
52797;BME280;38666;43.348;12.584;2022-09-09T10:41:50;95590.91;;;32.02;34.04
52797;BME280;38666;43.348;12.584;2022-09-09T10:44:29;95588.59;;;32.00;33.66
52797;BME280;38666;43.348;12.584;2022-09-09T10:55:35;95584.97;;;33.81;32.91
52797;BME280;38666;43.348;12.584;2022-09-09T10:58:05;95577.88;;;34.11;30.27
52797;BME280;38666;43.348;12.584;2022-09-09T11:03:05;95578.28;;;31.68;34.00
52797;BME280;38666;43.348;12.584;2022-09-09T11:08:15;95579.84;;;31.15;37.24
52797;BME280;38666;43.348;12.584;2022-09-09T11:19:13;95578.31;;;32.24;30.75
52797;BME280;38666;43.348;12.584;2022-09-09T11:21:48;95575.34;;;33.84;29.88
52797;BME280;38666;43.348;12.584;2022-09-09T11:24:29;95576.69;;;33.91;28.46
52797;BME280;38666;43.348;12.584;2022-09-09T11:27:11;95585.72;;;33.07;29.28
52797;BME280;38666;43.348;12.584;2022-09-09T11:30:15;95583.78;;;34.29;26.26
52797;BME280;38666;43.348;12.584;2022-09-09T11:38:16;95578.25;;;35.33;25.83
52797;BME280;38666;43.348;12.584;2022-09-09T11:40:43;95581.22;;;36.25;23.90
52797;BME280;38666;43.348;12.584;2022-09-09T11:43:12;95578.81;;;36.13;24.19
52797;BME280;38666;43.348;12.584;2022-09-09T11:45:41;95569.41;;;35.62;24.96
52797;BME280;38666;43.348;12.584;2022-09-09T11:48:24;95580.56;;;35.03;26.17
52797;BME280;38666;43.348;12.584;2022-09-09T11:50:59;95578.00;;;36.97;23.92
52797;BME280;38666;43.348;12.584;2022-09-09T11:53:26;95574.38;;;37.86;22.93
52797;BME280;38666;43.348;12.584;2022-09-09T11:56:11;95578.84;;;38.82;22.00
52797;BME280;38666;43.348;12.584;2022-09-09T11:58:44;95573.03;;;38.99;21.87
52797;BME280;38666;43.348;12.584;2022-09-09T12:06:46;95562.13;;;38.68;21.34
52797;BME280;38666;43.348;12.584;2022-09-09T12:09:28;95569.25;;;37.39;24.28
52797;BME280;38666;43.348;12.584;2022-09-09T12:12:29;95561.88;;;34.84;26.08
52797;BME280;38666;43.348;12.584;2022-09-09T12:17:41;95563.81;;;36.21;24.30
52797;BME280;38666;43.348;12.584;2022-09-09T12:22:51;95556.50;;;38.13;22.25
52797;BME280;38666;43.348;12.584;2022-09-09T12:28:18;95557.84;;;38.97;20.96
52797;BME280;38666;43.348;12.584;2022-09-09T12:33:37;95556.34;;;37.38;23.37
52797;BME280;38666;43.348;12.584;2022-09-09T12:36:07;95555.63;;;37.65;22.23
52797;BME280;38666;43.348;12.584;2022-09-09T12:38:40;95546.59;;;34.79;24.83
52797;BME280;38666;43.348;12.584;2022-09-09T12:41:06;95562.06;;;33.18;27.13
52797;BME280;38666;43.348;12.584;2022-09-09T12:43:32;95555.72;;;32.24;29.01
52797;BME280;38666;43.348;12.584;2022-09-09T12:46:06;95557.84;;;32.31;29.07
52797;BME280;38666;43.348;12.584;2022-09-09T12:48:36;95559.75;;;35.08;25.12
52797;BME280;38666;43.348;12.584;2022-09-09T12:51:05;95558.53;;;36.17;23.50
52797;BME280;38666;43.348;12.584;2022-09-09T12:53:36;95563.09;;;37.78;21.17
52797;BME280;38666;43.348;12.584;2022-09-09T12:56:08;95548.84;;;34.57;24.03
52797;BME280;38666;43.348;12.584;2022-09-09T12:58:46;95549.56;;;34.19;24.90
52797;BME280;38666;43.348;12.584;2022-09-09T13:01:30;95550.38;;;37.08;22.09
52797;BME280;38666;43.348;12.584;2022-09-09T13:03:56;95541.88;;;37.71;20.75
52797;BME280;38666;43.348;12.584;2022-09-09T13:06:24;95534.91;;;35.81;23.34
52797;BME280;38666;43.348;12.584;2022-09-09T13:08:52;95543.06;;;35.28;23.31
52797;BME280;38666;43.348;12.584;2022-09-09T13:11:24;95541.00;;;36.36;22.01
52797;BME280;38666;43.348;12.584;2022-09-09T13:13:56;95534.13;;;38.94;18.76
52797;BME280;38666;43.348;12.584;2022-09-09T13:16:26;95517.91;;;40.08;18.19
52797;BME280;38666;43.348;12.584;2022-09-09T13:19:00;95547.03;;;41.12;16.77
52797;BME280;38666;43.348;12.584;2022-09-09T13:21:37;95532.75;;;38.95;19.26
52797;BME280;38666;43.348;12.584;2022-09-09T13:24:25;95529.34;;;39.98;18.85
52797;BME280;38666;43.348;12.584;2022-09-09T13:26:57;95525.66;;;41.25;17.38
52797;BME280;38666;43.348;12.584;2022-09-09T13:29:23;95527.19;;;40.60;17.74
52797;BME280;38666;43.348;12.584;2022-09-09T13:31:50;95516.25;;;40.15;17.44
52797;BME280;38666;43.348;12.584;2022-09-09T13:34:32;95519.22;;;41.58;16.81
52797;BME280;38666;43.348;12.584;2022-09-09T13:37:05;95526.97;;;40.36;18.14
52797;BME280;38666;43.348;12.584;2022-09-09T13:39:36;95522.41;;;40.75;17.04
52797;BME280;38666;43.348;12.584;2022-09-09T13:42:02;95511.13;;;38.72;18.25
52797;BME280;38666;43.348;12.584;2022-09-09T13:44:31;95513.97;;;37.42;19.90
52797;BME280;38666;43.348;12.584;2022-09-09T13:47:05;95509.94;;;39.35;18.35
52797;BME280;38666;43.348;12.584;2022-09-09T13:49:31;95518.53;;;40.92;17.05
52797;BME280;38666;43.348;12.584;2022-09-09T13:52:12;95510.84;;;39.08;17.49
52797;BME280;38666;43.348;12.584;2022-09-09T13:54:42;95508.97;;;39.82;16.31
52797;BME280;38666;43.348;12.584;2022-09-09T13:57:23;95508.47;;;41.25;16.10
52797;BME280;38666;43.348;12.584;2022-09-09T13:59:51;95512.50;;;39.31;17.13
52797;BME280;38666;43.348;12.584;2022-09-09T14:02:17;95511.25;;;39.73;17.22
52797;BME280;38666;43.348;12.584;2022-09-09T14:04:43;95508.75;;;41.75;15.75
52797;BME280;38666;43.348;12.584;2022-09-09T14:07:12;95503.06;;;40.00;16.02
52797;BME280;38666;43.348;12.584;2022-09-09T14:09:38;95511.66;;;40.63;15.64
52797;BME280;38666;43.348;12.584;2022-09-09T14:12:05;95503.56;;;40.50;15.96
52797;BME280;38666;43.348;12.584;2022-09-09T14:14:30;95504.84;;;40.05;16.38
52797;BME280;38666;43.348;12.584;2022-09-09T14:16:56;95510.84;;;42.32;15.03
52797;BME280;38666;43.348;12.584;2022-09-09T14:19:21;95509.53;;;41.42;15.43
52797;BME280;38666;43.348;12.584;2022-09-09T14:21:47;95510.19;;;40.20;16.89
52797;BME280;38666;43.348;12.584;2022-09-09T14:24:13;95528.34;;;38.64;16.48
52797;BME280;38666;43.348;12.584;2022-09-09T14:26:39;95531.22;;;36.91;17.62
52797;BME280;38666;43.348;12.584;2022-09-09T14:29:04;95530.50;;;36.65;17.78
52797;BME280;38666;43.348;12.584;2022-09-09T14:31:30;95517.75;;;37.72;17.18
52797;BME280;38666;43.348;12.584;2022-09-09T14:33:55;95527.06;;;38.28;16.22
52797;BME280;38666;43.348;12.584;2022-09-09T14:36:21;95520.31;;;40.02;15.66
52797;BME280;38666;43.348;12.584;2022-09-09T14:38:47;95534.56;;;38.91;15.89
52797;BME280;38666;43.348;12.584;2022-09-09T14:41:15;95534.19;;;38.19;16.13
52797;BME280;38666;43.348;12.584;2022-09-09T14:43:45;95523.75;;;39.48;15.71
52797;BME280;38666;43.348;12.584;2022-09-09T14:46:14;95531.13;;;39.52;15.51
52797;BME280;38666;43.348;12.584;2022-09-09T14:48:40;95540.69;;;37.47;16.74
52797;BME280;38666;43.348;12.584;2022-09-09T14:53:32;95524.03;;;38.73;16.44
52797;BME280;38666;43.348;12.584;2022-09-09T14:56:13;95529.72;;;37.43;17.21
52797;BME280;38666;43.348;12.584;2022-09-09T14:58:38;95526.00;;;37.96;16.48
52797;BME280;38666;43.348;12.584;2022-09-09T15:01:15;95520.97;;;38.51;16.18
52797;BME280;38666;43.348;12.584;2022-09-09T15:03:43;95527.28;;;38.60;15.83
52797;BME280;38666;43.348;12.584;2022-09-09T15:06:12;95533.94;;;38.25;16.75
52797;BME280;38666;43.348;12.584;2022-09-09T15:08:40;95522.69;;;36.91;17.91
52797;BME280;38666;43.348;12.584;2022-09-09T15:11:07;95543.59;;;37.56;17.76
52797;BME280;38666;43.348;12.584;2022-09-09T15:13:36;95540.22;;;38.61;16.78
52797;BME280;38666;43.348;12.584;2022-09-09T15:18:31;95550.34;;;37.61;17.59
52797;BME280;38666;43.348;12.584;2022-09-09T15:20:59;95557.41;;;39.60;15.58
52797;BME280;38666;43.348;12.584;2022-09-09T15:23:25;95559.34;;;38.13;17.00
52797;BME280;38666;43.348;12.584;2022-09-09T15:25:52;95556.16;;;36.31;18.65
52797;BME280;38666;43.348;12.584;2022-09-09T15:28:18;95557.59;;;36.91;17.83
52797;BME280;38666;43.348;12.584;2022-09-09T15:30:43;95545.38;;;36.55;18.85
52797;BME280;38666;43.348;12.584;2022-09-09T15:33:10;95540.69;;;37.74;17.80
52797;BME280;38666;43.348;12.584;2022-09-09T15:35:36;95536.72;;;38.15;17.51
52797;BME280;38666;43.348;12.584;2022-09-09T15:38:02;95539.09;;;37.00;18.62
52797;BME280;38666;43.348;12.584;2022-09-09T15:40:30;95543.59;;;36.85;18.74
52797;BME280;38666;43.348;12.584;2022-09-09T15:42:58;95539.59;;;37.42;18.13
52797;BME280;38666;43.348;12.584;2022-09-09T15:45:23;95538.06;;;38.14;18.05
52797;BME280;38666;43.348;12.584;2022-09-09T15:47:49;95528.84;;;38.81;17.11
52797;BME280;38666;43.348;12.584;2022-09-09T15:50:14;95547.13;;;37.12;18.22
52797;BME280;38666;43.348;12.584;2022-09-09T15:52:39;95535.69;;;37.65;18.36
52797;BME280;38666;43.348;12.584;2022-09-09T15:55:05;95542.56;;;37.79;18.02
52797;BME280;38666;43.348;12.584;2022-09-09T15:57:33;95554.38;;;35.44;20.08
52797;BME280;38666;43.348;12.584;2022-09-09T16:00:00;95534.47;;;34.55;20.80
52797;BME280;38666;43.348;12.584;2022-09-09T16:02:25;95535.50;;;35.23;20.24
52797;BME280;38666;43.348;12.584;2022-09-09T16:04:51;95532.41;;;36.88;19.01
52797;BME280;38666;43.348;12.584;2022-09-09T16:07:16;95538.88;;;36.11;19.86
52797;BME280;38666;43.348;12.584;2022-09-09T16:09:42;95539.91;;;35.57;19.78
52797;BME280;38666;43.348;12.584;2022-09-09T16:12:09;95542.34;;;35.12;19.89
52797;BME280;38666;43.348;12.584;2022-09-09T16:14:38;95532.88;;;33.84;21.27
52797;BME280;38666;43.348;12.584;2022-09-09T16:17:05;95536.75;;;34.41;20.45
52797;BME280;38666;43.348;12.584;2022-09-09T16:19:31;95540.72;;;35.50;19.71
52797;BME280;38666;43.348;12.584;2022-09-09T16:21:57;95540.88;;;34.95;19.78
52797;BME280;38666;43.348;12.584;2022-09-09T16:24:23;95542.34;;;36.02;19.16
52797;BME280;38666;43.348;12.584;2022-09-09T16:26:51;95545.84;;;36.44;18.81
52797;BME280;38666;43.348;12.584;2022-09-09T16:29:18;95541.59;;;35.03;20.03
52797;BME280;38666;43.348;12.584;2022-09-09T16:31:45;95537.84;;;35.58;19.62
52797;BME280;38666;43.348;12.584;2022-09-09T16:34:11;95536.59;;;35.35;20.30
52797;BME280;38666;43.348;12.584;2022-09-09T16:36:38;95544.22;;;35.25;20.15
52797;BME280;38666;43.348;12.584;2022-09-09T16:39:10;95541.22;;;34.05;21.36
52797;BME280;38666;43.348;12.584;2022-09-09T16:41:37;95550.50;;;33.45;21.42
52797;BME280;38666;43.348;12.584;2022-09-09T16:44:08;95543.59;;;33.17;22.54
52797;BME280;38666;43.348;12.584;2022-09-09T16:46:37;95559.84;;;32.66;22.92
52797;BME280;38666;43.348;12.584;2022-09-09T16:49:05;95553.91;;;31.30;24.83
52797;BME280;38666;43.348;12.584;2022-09-09T16:51:34;95548.88;;;30.41;26.08
52797;BME280;38666;43.348;12.584;2022-09-09T16:54:02;95548.09;;;29.36;27.18
52797;BME280;38666;43.348;12.584;2022-09-09T16:56:29;95557.81;;;28.35;29.57
52797;BME280;38666;43.348;12.584;2022-09-09T16:59:00;95558.13;;;27.89;30.43
52797;BME280;38666;43.348;12.584;2022-09-09T17:01:28;95559.78;;;27.13;30.78
52797;BME280;38666;43.348;12.584;2022-09-09T17:03:58;95557.06;;;26.73;31.76
52797;BME280;38666;43.348;12.584;2022-09-09T17:06:24;95555.06;;;26.45;32.06
52797;BME280;38666;43.348;12.584;2022-09-09T17:08:58;95560.94;;;26.36;32.46
52797;BME280;38666;43.348;12.584;2022-09-09T17:11:25;95566.25;;;26.22;32.55
52797;BME280;38666;43.348;12.584;2022-09-09T17:13:52;95563.97;;;26.03;32.95
52797;BME280;38666;43.348;12.584;2022-09-09T17:16:19;95568.50;;;25.78;33.84
52797;BME280;38666;43.348;12.584;2022-09-09T17:18:51;95569.50;;;25.69;33.84
52797;BME280;38666;43.348;12.584;2022-09-09T17:21:19;95566.66;;;25.52;34.68
52797;BME280;38666;43.348;12.584;2022-09-09T17:23:46;95573.72;;;25.35;34.41
52797;BME280;38666;43.348;12.584;2022-09-09T17:26:14;95580.25;;;25.21;35.08
52797;BME280;38666;43.348;12.584;2022-09-09T17:28:41;95574.41;;;25.19;34.66
52797;BME280;38666;43.348;12.584;2022-09-09T17:31:08;95573.53;;;24.95;35.42
52797;BME280;38666;43.348;12.584;2022-09-09T17:33:39;95579.53;;;24.82;34.92
52797;BME280;38666;43.348;12.584;2022-09-09T17:38:39;95580.88;;;24.55;36.20
52797;BME280;38666;43.348;12.584;2022-09-09T17:41:21;95583.66;;;24.55;36.50
52797;BME280;38666;43.348;12.584;2022-09-09T17:43:47;95578.03;;;24.49;36.53
52797;BME280;38666;43.348;12.584;2022-09-09T17:46:16;95589.47;;;24.51;36.31
52797;BME280;38666;43.348;12.584;2022-09-09T17:48:43;95590.94;;;24.40;36.39
52797;BME280;38666;43.348;12.584;2022-09-09T17:51:12;95589.31;;;24.28;36.45
52797;BME280;38666;43.348;12.584;2022-09-09T17:53:40;95589.16;;;24.16;37.81
52797;BME280;38666;43.348;12.584;2022-09-09T17:56:09;95602.53;;;24.07;37.59
52797;BME280;38666;43.348;12.584;2022-09-09T17:58:35;95604.75;;;23.97;37.29
52797;BME280;38666;43.348;12.584;2022-09-09T18:01:02;95614.78;;;23.88;37.90
52797;BME280;38666;43.348;12.584;2022-09-09T18:03:29;95613.25;;;23.87;38.21
52797;BME280;38666;43.348;12.584;2022-09-09T18:06:00;95614.13;;;23.73;39.26
52797;BME280;38666;43.348;12.584;2022-09-09T18:08:25;95610.31;;;23.70;38.79
52797;BME280;38666;43.348;12.584;2022-09-09T18:10:52;95616.09;;;23.66;38.85
52797;BME280;38666;43.348;12.584;2022-09-09T18:13:20;95628.75;;;23.67;38.63
52797;BME280;38666;43.348;12.584;2022-09-09T18:15:46;95641.88;;;23.61;39.55
52797;BME280;38666;43.348;12.584;2022-09-09T18:18:11;95645.63;;;23.58;39.01
52797;BME280;38666;43.348;12.584;2022-09-09T18:20:38;95640.63;;;23.41;38.87
52797;BME280;38666;43.348;12.584;2022-09-09T18:23:05;95647.72;;;23.42;39.58
52797;BME280;38666;43.348;12.584;2022-09-09T18:25:30;95653.16;;;23.31;39.69
52797;BME280;38666;43.348;12.584;2022-09-09T18:27:56;95652.97;;;23.19;40.86
52797;BME280;38666;43.348;12.584;2022-09-09T18:30:23;95650.13;;;23.14;40.55
52797;BME280;38666;43.348;12.584;2022-09-09T18:32:49;95658.97;;;23.12;40.90
52797;BME280;38666;43.348;12.584;2022-09-09T18:35:15;95653.59;;;23.08;40.94
52797;BME280;38666;43.348;12.584;2022-09-09T18:37:41;95659.72;;;23.13;40.81
52797;BME280;38666;43.348;12.584;2022-09-09T18:40:06;95664.66;;;23.03;41.16
52797;BME280;38666;43.348;12.584;2022-09-09T18:42:32;95666.88;;;22.99;41.23
52797;BME280;38666;43.348;12.584;2022-09-09T18:44:58;95669.28;;;22.91;42.41
52797;BME280;38666;43.348;12.584;2022-09-09T18:47:23;95673.81;;;22.88;42.33
52797;BME280;38666;43.348;12.584;2022-09-09T18:49:49;95680.63;;;22.87;42.22
52797;BME280;38666;43.348;12.584;2022-09-09T18:52:15;95677.00;;;22.81;42.98
